Time;durP1;ratioP1;P1;durP2;ratioP2;P2;SDS_P1;SDS_P2;PMS_P1;PMS_P2;Temp;Humidity;BMP_temperature;BMP_pressure;BME280_temperature;BME280_humidity;BME280_pressure;Samples;Min_cycle;Max_cycle;Signal;HPM_P1;HPM_P2
2023/12/25 00:02:16;;;;;;;6.60;1.40;;;25.30;99.90;;;;;;4990873;28;20285;-71
2023/12/25 00:04:44;;;;;;;8.07;1.30;;;25.30;99.90;;;;;;4989746;28;20187;-72
2023/12/25 00:07:11;;;;;;;3.93;0.97;;;25.30;99.90;;;;;;4984887;28;20218;-71
2023/12/25 00:09:38;;;;;;;3.23;0.83;;;25.30;99.90;;;;;;4991656;28;20333;-73
2023/12/25 00:12:06;;;;;;;4.70;1.37;;;25.30;99.90;;;;;;4991771;28;20186;-73
2023/12/25 00:14:34;;;;;;;3.57;1.20;;;25.30;99.90;;;;;;4992110;28;20194;-72
2023/12/25 00:17:02;;;;;;;6.73;1.60;;;25.10;99.90;;;;;;4989703;28;20558;-73
2023/12/25 00:19:29;;;;;;;3.73;1.30;;;25.00;99.90;;;;;;4992629;28;20182;-73
2023/12/25 00:21:58;;;;;;;6.23;1.00;;;25.00;99.90;;;;;;4978313;28;20202;-73
2023/12/25 00:24:25;;;;;;;5.97;1.33;;;25.10;99.90;;;;;;4995957;28;20198;-73
2023/12/25 00:26:52;;;;;;;6.37;1.57;;;25.10;99.90;;;;;;4978839;28;20272;-73
2023/12/25 00:29:20;;;;;;;5.27;1.67;;;25.30;99.90;;;;;;4996199;28;20190;-73
2023/12/25 00:31:47;;;;;;;7.03;4.00;;;25.50;99.90;;;;;;4995570;28;20660;-74
2023/12/25 00:34:15;;;;;;;6.50;3.40;;;25.70;99.90;;;;;;4995881;28;20174;-73
2023/12/25 00:36:42;;;;;;;9.27;4.20;;;25.90;99.90;;;;;;4996495;28;20277;-73
2023/12/25 00:39:10;;;;;;;3.73;1.50;;;25.90;99.90;;;;;;4995856;28;20190;-71
2023/12/25 00:41:37;;;;;;;4.00;1.80;;;26.10;99.90;;;;;;4995992;28;20359;-71
2023/12/25 00:44:04;;;;;;;3.87;1.20;;;26.40;99.90;;;;;;4996178;28;20182;-73
2023/12/25 00:46:32;;;;;;;5.53;1.20;;;27.20;99.90;;;;;;4995571;28;20206;-73
2023/12/25 00:48:59;;;;;;;5.53;1.43;;;27.70;99.90;;;;;;4996205;28;20202;-72
2023/12/25 00:51:26;;;;;;;4.47;1.53;;;28.90;99.90;;;;;;4996106;28;20170;-71
2023/12/25 00:53:54;;;;;;;5.67;1.60;;;29.20;99.90;;;;;;4996747;28;20197;-74
2023/12/25 00:56:22;;;;;;;2.13;1.00;;;29.30;99.90;;;;;;4995113;28;20258;-73
2023/12/25 00:58:49;;;;;;;5.20;1.17;;;29.30;99.90;;;;;;4996310;28;20297;-73
2023/12/25 01:01:16;;;;;;;5.00;1.00;;;29.60;99.90;;;;;;4995810;28;20175;-73
2023/12/25 01:03:43;;;;;;;28.35;20.10;;;30.00;99.90;;;;;;4995668;28;20194;-73
2023/12/25 01:06:11;;;;;;;30.73;22.23;;;29.90;99.90;;;;;;4995720;28;20221;-74
2023/12/25 01:08:38;;;;;;;41.67;31.40;;;29.20;99.90;;;;;;4995391;28;20171;-73
2023/12/25 01:14:27;;;;;;;19.13;13.40;;;28.10;99.90;;;;;;4995826;28;20281;-72
2023/12/25 01:16:55;;;;;;;11.60;7.70;;;27.30;99.90;;;;;;4995921;28;20193;-72
2023/12/25 01:19:22;;;;;;;8.40;1.77;;;27.30;99.90;;;;;;4995554;28;20170;-73
2023/12/25 01:21:49;;;;;;;6.60;1.77;;;27.40;99.90;;;;;;4995189;28;20183;-72
2023/12/25 01:24:16;;;;;;;3.23;1.17;;;28.40;99.90;;;;;;4994836;28;20237;-73
2023/12/25 01:26:44;;;;;;;7.23;1.50;;;29.20;99.90;;;;;;4995464;28;20212;-71
2023/12/25 01:29:11;;;;;;;3.47;1.70;;;29.70;99.90;;;;;;4995627;28;20207;-72
2023/12/25 01:31:40;;;;;;;3.90;2.80;;;30.70;99.90;;;;;;4994159;28;20269;-72
2023/12/25 01:34:07;;;;;;;2.57;1.90;;;30.80;99.90;;;;;;4995039;28;20191;-71
2023/12/25 01:36:35;;;;;;;9.82;4.70;;;30.90;99.90;;;;;;4995069;28;20214;-71
2023/12/25 01:39:03;;;;;;;6.25;3.65;;;31.50;99.90;;;;;;4993957;28;20265;-71
2023/12/25 01:41:30;;;;;;;2.75;1.50;;;31.70;99.90;;;;;;4994870;28;20273;-73
2023/12/25 01:43:58;;;;;;;3.00;1.50;;;31.90;99.90;;;;;;4978018;28;20237;-72
2023/12/25 01:46:25;;;;;;;7.10;2.17;;;31.20;99.90;;;;;;4977162;28;20316;-69
2023/12/25 01:48:54;;;;;;;5.03;1.30;;;31.30;99.90;;;;;;4995033;28;20266;-71
2023/12/25 01:51:24;;;;;;;7.25;1.98;;;31.70;99.90;;;;;;4995310;28;20635;-73
2023/12/25 01:53:52;;;;;;;3.63;1.80;;;30.90;99.90;;;;;;4994505;28;20174;-72
2023/12/25 01:56:20;;;;;;;2.90;1.80;;;30.80;99.90;;;;;;4994833;28;20590;-71
2023/12/25 01:58:47;;;;;;;5.70;1.40;;;31.10;99.90;;;;;;4994847;28;20245;-71
2023/12/25 02:01:15;;;;;;;4.18;1.25;;;30.20;99.90;;;;;;4994831;28;20171;-71
2023/12/25 02:03:42;;;;;;;2.13;1.25;;;30.10;99.90;;;;;;4995187;28;20189;-71
2023/12/25 02:06:10;;;;;;;3.20;1.48;;;30.50;99.90;;;;;;4994953;28;20281;-71
2023/12/25 02:08:37;;;;;;;5.95;1.75;;;31.30;99.90;;;;;;4995559;28;20589;-71
2023/12/25 02:11:05;;;;;;;4.18;1.77;;;31.70;99.90;;;;;;4994790;28;20198;-69
2023/12/25 02:13:32;;;;;;;3.45;1.45;;;32.10;99.90;;;;;;4995157;28;20179;-70
2023/12/25 02:16:00;;;;;;;4.15;1.45;;;32.00;99.90;;;;;;4995395;28;20183;-70
2023/12/25 02:21:49;;;;;;;3.75;1.60;;;32.00;99.90;;;;;;4978721;28;20798;-72
2023/12/25 02:24:23;;;;;;;5.25;1.30;;;32.20;99.90;;;;;;4989754;28;20190;-72
2023/12/25 02:26:50;;;;;;;5.75;1.83;;;32.00;99.90;;;;;;4994188;28;20229;-71
2023/12/25 02:29:17;;;;;;;3.90;1.65;;;31.50;99.90;;;;;;4993750;28;20269;-70
2023/12/25 02:31:48;;;;;;;3.38;1.30;;;31.30;99.90;;;;;;4993688;28;20190;-69
2023/12/25 02:34:16;;;;;;;2.97;1.20;;;31.70;99.90;;;;;;4994174;28;20179;-71
2023/12/25 02:36:43;;;;;;;4.10;1.40;;;31.80;99.90;;;;;;4992997;28;20196;-71
2023/12/25 02:39:10;;;;;;;5.07;1.60;;;31.30;99.90;;;;;;4993306;28;20644;-70
2023/12/25 02:41:38;;;;;;;3.38;1.67;;;31.00;99.90;;;;;;4993584;28;20277;-71
2023/12/25 02:44:06;;;;;;;3.25;1.67;;;31.00;99.90;;;;;;4992860;28;20187;-72
2023/12/25 02:46:33;;;;;;;1.83;1.60;;;31.80;99.90;;;;;;4993804;28;20695;-72
2023/12/25 02:49:01;;;;;;;3.25;1.58;;;32.30;99.90;;;;;;4993860;28;20601;-71
2023/12/25 02:51:28;;;;;;;3.35;1.77;;;32.30;99.90;;;;;;4993665;28;20277;-73
2023/12/25 02:53:55;;;;;;;2.03;1.65;;;32.40;99.90;;;;;;4993919;28;20604;-72
2023/12/25 02:56:22;;;;;;;6.80;2.38;;;32.30;99.90;;;;;;4993914;28;21054;-71
2023/12/25 02:58:50;;;;;;;2.67;1.83;;;32.00;99.90;;;;;;4993084;28;20202;-71
2023/12/25 03:01:17;;;;;;;5.70;2.05;;;32.00;99.90;;;;;;4993596;28;20226;-72
2023/12/25 03:03:44;;;;;;;5.55;1.80;;;31.50;99.90;;;;;;4993550;28;20529;-72
2023/12/25 03:06:12;;;;;;;3.50;1.50;;;31.60;99.90;;;;;;4993418;28;20261;-72
2023/12/25 03:08:39;;;;;;;2.42;1.45;;;31.60;99.90;;;;;;4993380;28;20179;-72
2023/12/25 03:11:06;;;;;;;4.60;1.73;;;32.20;99.90;;;;;;4993486;28;20187;-71
2023/12/25 03:13:34;;;;;;;4.05;1.65;;;32.30;99.90;;;;;;4993767;28;20257;-71
2023/12/25 03:16:06;;;;;;;4.65;1.77;;;31.80;99.90;;;;;;4971173;28;20181;-73
2023/12/25 03:18:34;;;;;;;2.67;1.75;;;31.20;99.90;;;;;;4992741;28;20226;-72
2023/12/25 03:21:01;;;;;;;4.50;1.70;;;30.70;99.90;;;;;;4976178;28;20597;-73
2023/12/25 03:23:29;;;;;;;5.37;1.63;;;30.20;99.90;;;;;;4993212;28;20190;-72
2023/12/25 03:25:56;;;;;;;2.80;1.50;;;29.90;99.90;;;;;;4993243;28;20305;-71
2023/12/25 03:28:26;;;;;;;3.55;1.70;;;29.60;99.90;;;;;;4975354;28;20709;-73
2023/12/25 03:30:54;;;;;;;6.70;1.90;;;29.40;99.90;;;;;;4993329;28;20171;-72
2023/12/25 03:33:22;;;;;;;4.30;1.60;;;29.30;99.90;;;;;;4993416;28;20186;-73
2023/12/25 03:35:49;;;;;;;2.47;1.27;;;29.30;99.90;;;;;;4993097;28;20233;-73
2023/12/25 03:38:18;;;;;;;2.83;1.27;;;29.20;99.90;;;;;;4992258;28;20178;-71
2023/12/25 03:40:45;;;;;;;3.57;1.37;;;29.60;99.90;;;;;;4975242;28;20560;-72
2023/12/25 03:43:12;;;;;;;1.87;1.10;;;29.70;99.90;;;;;;4993056;28;20217;-71
2023/12/25 03:45:40;;;;;;;4.73;2.13;;;29.60;99.90;;;;;;4992744;28;20183;-70
2023/12/25 03:48:07;;;;;;;3.93;1.03;;;29.40;99.90;;;;;;4994330;28;20598;-72
2023/12/25 03:50:34;;;;;;;2.83;1.23;;;29.10;99.90;;;;;;4993904;28;20207;-70
2023/12/25 03:53:02;;;;;;;4.53;1.20;;;28.70;99.90;;;;;;4978248;28;20716;-69
2023/12/25 03:55:29;;;;;;;4.33;1.27;;;28.40;99.90;;;;;;4985322;28;20182;-70
2023/12/25 03:57:56;;;;;;;3.70;1.10;;;28.30;99.90;;;;;;4992243;28;20266;-70
2023/12/25 04:00:24;;;;;;;2.33;1.30;;;28.30;99.90;;;;;;4992060;28;20200;-72
2023/12/25 04:02:51;;;;;;;2.50;1.27;;;28.50;99.90;;;;;;4992011;28;20192;-70
2023/12/25 04:05:19;;;;;;;2.63;0.90;;;29.00;99.90;;;;;;4975709;28;20278;-70
2023/12/25 04:07:47;;;;;;;2.60;1.00;;;29.10;99.90;;;;;;4993362;28;20210;-70
2023/12/25 04:10:14;;;;;;;2.30;1.13;;;28.90;99.90;;;;;;4992389;28;20179;-70
2023/12/25 04:12:41;;;;;;;3.73;1.00;;;28.60;99.90;;;;;;4993561;28;20269;-72
2023/12/25 04:15:09;;;;;;;3.47;1.30;;;28.60;99.90;;;;;;4992785;28;20183;-73
2023/12/25 04:17:37;;;;;;;2.20;1.10;;;28.90;99.90;;;;;;4993009;28;20674;-70
2023/12/25 04:20:05;;;;;;;4.83;0.90;;;28.70;99.90;;;;;;4992676;28;20182;-72
2023/12/25 04:22:32;;;;;;;2.90;1.10;;;28.60;99.90;;;;;;4991945;28;20281;-71
2023/12/25 04:24:59;;;;;;;1.90;0.93;;;28.40;99.90;;;;;;4992029;28;20178;-71
2023/12/25 04:27:27;;;;;;;2.10;1.00;;;28.10;99.90;;;;;;4992506;28;20229;-70
2023/12/25 04:29:54;;;;;;;3.37;0.83;;;28.00;99.90;;;;;;4992473;28;20748;-70
2023/12/25 04:32:21;;;;;;;6.23;1.10;;;27.80;99.90;;;;;;4992912;28;20193;-71
2023/12/25 04:34:49;;;;;;;3.90;1.20;;;27.90;99.90;;;;;;4992882;28;20202;-71
2023/12/25 04:37:16;;;;;;;2.27;0.80;;;27.90;99.90;;;;;;4976185;28;20273;-73
2023/12/25 04:39:43;;;;;;;6.57;1.67;;;27.90;99.90;;;;;;4993703;28;20190;-73
2023/12/25 04:42:11;;;;;;;4.23;1.23;;;27.70;99.90;;;;;;4994357;28;20240;-71
2023/12/25 04:44:38;;;;;;;4.50;1.37;;;27.60;99.90;;;;;;4993481;28;20183;-73
2023/12/25 04:47:05;;;;;;;5.50;1.00;;;27.60;99.90;;;;;;4994392;28;20276;-74
2023/12/25 04:49:33;;;;;;;4.30;0.97;;;27.50;99.90;;;;;;4995139;28;20185;-73
2023/12/25 04:52:00;;;;;;;5.90;1.23;;;27.60;99.90;;;;;;4993883;28;20274;-72
2023/12/25 04:54:28;;;;;;;4.57;1.53;;;27.60;99.90;;;;;;4994453;28;20645;-73
2023/12/25 04:56:57;;;;;;;4.87;1.30;;;27.70;99.90;;;;;;4993543;28;20239;-69
2023/12/25 04:59:24;;;;;;;4.67;1.73;;;27.70;99.90;;;;;;4993812;28;20202;-72
2023/12/25 05:01:53;;;;;;;4.63;1.00;;;27.80;99.90;;;;;;4993476;28;20181;-69
2023/12/25 05:04:21;;;;;;;2.83;0.80;;;27.80;99.90;;;;;;4976417;28;20179;-69
2023/12/25 05:06:48;;;;;;;7.90;1.33;;;27.90;99.90;;;;;;4995038;28;20214;-69
2023/12/25 05:09:15;;;;;;;5.80;1.20;;;27.90;99.90;;;;;;4997114;28;20194;-69
2023/12/25 05:11:42;;;;;;;7.10;1.63;;;27.80;99.90;;;;;;4997120;28;20178;-69
2023/12/25 05:14:10;;;;;;;4.57;1.30;;;27.70;99.90;;;;;;4997073;28;20183;-70
2023/12/25 05:16:37;;;;;;;3.23;1.00;;;27.50;99.90;;;;;;4996943;28;20362;-70
2023/12/25 05:19:04;;;;;;;5.43;1.30;;;27.40;99.90;;;;;;4996803;28;20182;-69
2023/12/25 05:21:32;;;;;;;5.80;1.53;;;27.40;99.90;;;;;;4996592;28;20182;-69
2023/12/25 05:23:59;;;;;;;7.37;1.80;;;27.40;99.90;;;;;;4996758;28;20175;-70
2023/12/25 05:26:27;;;;;;;4.40;1.67;;;27.30;99.90;;;;;;4996830;28;20245;-69
2023/12/25 05:28:54;;;;;;;5.50;1.90;;;27.20;99.90;;;;;;4996892;28;20183;-71
2023/12/25 05:31:22;;;;;;;7.00;1.80;;;27.00;99.90;;;;;;4996329;28;20186;-69
2023/12/25 05:33:49;;;;;;;2.87;1.23;;;26.90;99.90;;;;;;4996518;28;20253;-70
2023/12/25 05:36:17;;;;;;;5.87;1.43;;;27.00;99.90;;;;;;4996655;28;20719;-70
2023/12/25 05:38:44;;;;;;;5.33;1.23;;;27.00;99.90;;;;;;4996377;28;20648;-69
2023/12/25 05:41:11;;;;;;;3.60;0.90;;;27.00;99.90;;;;;;4996342;28;20217;-70
2023/12/25 05:43:39;;;;;;;4.50;1.33;;;27.00;99.90;;;;;;4996364;28;20183;-71
2023/12/25 05:46:06;;;;;;;6.20;1.57;;;27.00;99.90;;;;;;4996260;28;20210;-70
2023/12/25 05:48:33;;;;;;;5.47;1.33;;;26.90;99.90;;;;;;4996425;28;20175;-73
2023/12/25 05:51:01;;;;;;;6.63;1.10;;;26.80;99.90;;;;;;4996364;28;20277;-71
2023/12/25 05:53:28;;;;;;;3.50;1.13;;;26.70;99.90;;;;;;4996097;28;20274;-73
2023/12/25 05:55:56;;;;;;;3.37;1.27;;;26.60;99.90;;;;;;4996042;28;20282;-74
2023/12/25 05:58:23;;;;;;;3.20;1.20;;;26.50;99.90;;;;;;4996017;28;20234;-70
2023/12/25 06:00:50;;;;;;;8.43;1.60;;;26.40;99.90;;;;;;4995988;28;20183;-69
2023/12/25 06:03:18;;;;;;;4.07;1.90;;;26.30;99.90;;;;;;4996044;28;20206;-68
2023/12/25 06:05:45;;;;;;;3.67;1.63;;;26.30;99.90;;;;;;4996047;28;20179;-72
2023/12/25 06:08:12;;;;;;;6.00;1.40;;;26.30;99.90;;;;;;4978596;28;20202;-70
2023/12/25 06:10:40;;;;;;;4.40;1.60;;;26.00;99.90;;;;;;4995935;28;20179;-73
2023/12/25 06:13:07;;;;;;;5.00;1.50;;;25.90;99.90;;;;;;4996090;28;20178;-71
2023/12/25 06:15:34;;;;;;;4.73;1.40;;;25.90;99.90;;;;;;4995856;28;20179;-71
2023/12/25 06:18:02;;;;;;;6.77;1.50;;;25.90;99.90;;;;;;4994727;28;20182;-69
2023/12/25 06:20:30;;;;;;;6.20;1.63;;;25.90;99.90;;;;;;4995698;28;20702;-71
2023/12/25 06:22:57;;;;;;;4.43;1.47;;;25.90;99.90;;;;;;4995758;28;20179;-69
2023/12/25 06:25:24;;;;;;;5.30;1.67;;;25.90;99.90;;;;;;4995871;28;20372;-71
2023/12/25 06:27:52;;;;;;;5.67;1.47;;;25.90;99.90;;;;;;4995632;28;20273;-72
2023/12/25 06:30:19;;;;;;;6.77;2.10;;;25.90;99.90;;;;;;4995486;28;20194;-73
2023/12/25 06:32:46;;;;;;;3.83;1.37;;;25.80;99.90;;;;;;4996139;28;20548;-72
2023/12/25 06:35:14;;;;;;;7.00;2.03;;;25.60;99.90;;;;;;4995869;28;20617;-72
2023/12/25 06:37:41;;;;;;;5.07;1.77;;;25.40;99.90;;;;;;4995414;28;20193;-71
2023/12/25 06:40:09;;;;;;;6.73;1.80;;;25.30;99.90;;;;;;4995227;28;20179;-72
2023/12/25 06:42:36;;;;;;;5.33;1.23;;;25.20;99.90;;;;;;4995267;28;20261;-72
2023/12/25 06:45:08;;;;;;;5.00;1.37;;;25.00;99.90;;;;;;4977885;28;20205;-71
2023/12/25 06:47:35;;;;;;;6.97;1.60;;;24.90;99.90;;;;;;4995248;28;20226;-71
2023/12/25 06:50:03;;;;;;;7.60;2.10;;;24.80;99.90;;;;;;4977706;28;20186;-72
2023/12/25 06:52:30;;;;;;;9.70;1.87;;;24.70;99.90;;;;;;4996055;28;20540;-72
2023/12/25 06:54:58;;;;;;;8.13;1.77;;;24.50;99.90;;;;;;4995521;28;20269;-74
2023/12/25 06:57:25;;;;;;;5.60;1.70;;;24.40;99.90;;;;;;4995226;28;20219;-74
2023/12/25 06:59:52;;;;;;;6.73;2.20;;;24.40;99.90;;;;;;4995611;28;20174;-72
2023/12/25 07:02:21;;;;;;;5.33;1.43;;;24.20;99.90;;;;;;4995546;28;20629;-73
2023/12/25 07:04:48;;;;;;;3.87;1.70;;;24.10;99.90;;;;;;4995771;28;20190;-72
2023/12/25 07:07:15;;;;;;;9.17;2.30;;;23.90;99.90;;;;;;4995120;28;20214;-73
2023/12/25 07:09:43;;;;;;;8.37;1.70;;;23.90;99.90;;;;;;4995011;28;20636;-70
2023/12/25 07:12:11;;;;;;;6.87;2.10;;;23.80;99.90;;;;;;4995339;28;20186;-70
2023/12/25 07:14:39;;;;;;;5.23;1.70;;;23.80;99.90;;;;;;4995808;28;20178;-74
2023/12/25 07:17:08;;;;;;;7.53;2.03;;;23.80;99.90;;;;;;4995655;28;20197;-74
2023/12/25 07:19:35;;;;;;;4.93;1.57;;;23.80;99.90;;;;;;4995583;28;20186;-74
2023/12/25 07:22:03;;;;;;;5.53;1.60;;;23.90;99.90;;;;;;4995101;28;20662;-72
2023/12/25 07:24:30;;;;;;;3.67;1.47;;;23.90;99.90;;;;;;4995215;28;20210;-71
2023/12/25 07:26:58;;;;;;;7.03;1.60;;;23.90;99.90;;;;;;4995049;28;20221;-75
2023/12/25 07:29:25;;;;;;;5.47;1.90;;;23.90;99.90;;;;;;4994662;28;20175;-74
2023/12/25 07:31:53;;;;;;;7.13;1.73;;;23.90;99.90;;;;;;4994740;28;20185;-73
2023/12/25 07:34:20;;;;;;;4.50;1.60;;;23.90;99.90;;;;;;4994430;28;20643;-74
2023/12/25 07:36:48;;;;;;;5.10;2.07;;;23.90;99.90;;;;;;4994513;28;20174;-70
2023/12/25 07:39:16;;;;;;;5.33;1.53;;;23.90;99.90;;;;;;4994602;28;20177;-71
2023/12/25 07:41:45;;;;;;;4.00;1.60;;;23.90;99.90;;;;;;4976860;28;20190;-74
2023/12/25 07:44:13;;;;;;;4.97;1.67;;;23.90;99.90;;;;;;4994714;28;20174;-72
2023/12/25 07:46:41;;;;;;;10.73;2.03;;;23.90;99.90;;;;;;4994359;28;20305;-72
2023/12/25 07:49:08;;;;;;;10.23;2.10;;;23.90;99.90;;;;;;4994979;28;20179;-73
2023/12/25 07:51:36;;;;;;;4.23;1.50;;;23.90;99.90;;;;;;4977187;28;20197;-71
2023/12/25 07:54:03;;;;;;;5.43;1.60;;;23.90;99.90;;;;;;4994429;28;20640;-73
2023/12/25 07:56:30;;;;;;;5.73;1.60;;;23.90;99.90;;;;;;4994847;28;20259;-73
2023/12/25 07:58:58;;;;;;;5.83;1.97;;;23.80;99.90;;;;;;4994822;28;20210;-71
2023/12/25 08:01:25;;;;;;;6.00;1.73;;;23.80;99.90;;;;;;4976697;28;20209;-71
2023/12/25 08:03:53;;;;;;;5.53;1.80;;;23.90;99.90;;;;;;4994589;28;20659;-69
2023/12/25 08:06:22;;;;;;;6.07;1.40;;;23.80;99.90;;;;;;4994356;28;20201;-70
2023/12/25 08:08:51;;;;;;;6.40;1.27;;;23.90;99.90;;;;;;4994568;28;20190;-73
2023/12/25 08:11:19;;;;;;;4.47;1.60;;;23.80;99.90;;;;;;4994097;28;20178;-70
2023/12/25 08:13:46;;;;;;;5.23;1.77;;;23.70;99.90;;;;;;4994658;28;20182;-72
2023/12/25 08:16:13;;;;;;;3.57;1.53;;;23.60;99.90;;;;;;4994359;28;20658;-71
2023/12/25 08:18:41;;;;;;;4.63;1.90;;;23.60;99.90;;;;;;4976469;28;20606;-72
2023/12/25 08:21:08;;;;;;;5.07;1.63;;;23.50;99.90;;;;;;4994180;28;20186;-71
2023/12/25 08:23:35;;;;;;;8.43;1.70;;;23.50;99.90;;;;;;4994424;28;20197;-73
2023/12/25 08:26:06;;;;;;;6.50;2.13;;;23.40;99.90;;;;;;4994473;28;20179;-73
2023/12/25 08:28:35;;;;;;;5.47;2.07;;;23.40;99.90;;;;;;4995066;28;20241;-73
2023/12/25 08:31:04;;;;;;;4.50;1.50;;;23.40;99.90;;;;;;4993790;28;20190;-73
2023/12/25 08:33:31;;;;;;;6.50;1.73;;;23.50;99.90;;;;;;4994077;28;20190;-73
2023/12/25 08:35:58;;;;;;;5.30;2.10;;;23.60;99.90;;;;;;4994274;28;20182;-73
2023/12/25 08:38:27;;;;;;;4.43;1.40;;;23.70;99.90;;;;;;4994043;28;20189;-73
2023/12/25 08:40:54;;;;;;;6.10;1.70;;;23.80;99.90;;;;;;4994094;28;20179;-74
2023/12/25 08:43:22;;;;;;;3.33;1.57;;;23.70;99.90;;;;;;4998073;28;20692;-74
2023/12/25 08:45:50;;;;;;;6.00;1.40;;;23.60;99.90;;;;;;4998233;28;20178;-73
2023/12/25 08:48:18;;;;;;;6.33;1.80;;;23.70;99.90;;;;;;4980477;28;20544;-73
2023/12/25 08:50:46;;;;;;;6.67;1.83;;;23.60;99.90;;;;;;4998089;28;20185;-73
2023/12/25 08:53:13;;;;;;;6.00;2.00;;;23.60;99.90;;;;;;4997680;28;20178;-73
2023/12/25 08:55:41;;;;;;;7.53;1.60;;;23.50;99.90;;;;;;4997417;28;20190;-73
2023/12/25 08:58:09;;;;;;;6.57;1.50;;;23.40;99.90;;;;;;4997323;28;20231;-73
2023/12/25 09:00:36;;;;;;;6.47;1.73;;;23.40;99.90;;;;;;4997567;28;20178;-73
2023/12/25 09:03:06;;;;;;;7.70;1.87;;;23.30;99.90;;;;;;4997409;28;20277;-73
2023/12/25 09:05:34;;;;;;;5.37;1.67;;;23.30;99.90;;;;;;4997227;28;20282;-73
2023/12/25 09:08:02;;;;;;;7.33;1.47;;;23.30;99.90;;;;;;4997335;28;20210;-71
2023/12/25 09:10:29;;;;;;;8.03;1.70;;;23.40;99.90;;;;;;4979734;28;20282;-73
2023/12/25 09:12:57;;;;;;;7.33;2.37;;;23.40;99.90;;;;;;4997151;28;20640;-70
2023/12/25 09:15:25;;;;;;;7.00;1.50;;;23.50;99.90;;;;;;4997674;28;20205;-70
2023/12/25 09:17:53;;;;;;;3.83;1.60;;;23.50;99.90;;;;;;4997101;28;20194;-72
2023/12/25 09:20:21;;;;;;;5.57;1.73;;;23.60;99.90;;;;;;4997063;28;20526;-74
2023/12/25 09:22:48;;;;;;;7.57;1.87;;;23.60;99.90;;;;;;4996954;28;20321;-72
2023/12/25 09:25:16;;;;;;;6.80;1.63;;;23.60;99.90;;;;;;4996777;28;20250;-74
2023/12/25 09:27:44;;;;;;;6.07;1.67;;;23.60;99.90;;;;;;4996831;28;20384;-73
2023/12/25 09:30:12;;;;;;;2.07;1.47;;;23.60;99.90;;;;;;4996726;28;20634;-72
2023/12/25 09:32:41;;;;;;;4.73;1.57;;;23.70;99.90;;;;;;4997039;28;20182;-71
2023/12/25 09:35:10;;;;;;;6.90;1.80;;;23.60;99.90;;;;;;4996674;28;20283;-72
2023/12/25 09:37:38;;;;;;;4.60;1.60;;;23.60;99.90;;;;;;4996504;28;20194;-70
2023/12/25 09:40:06;;;;;;;3.97;1.50;;;23.60;99.90;;;;;;4996790;28;20582;-70
2023/12/25 09:42:34;;;;;;;7.13;2.00;;;23.60;99.90;;;;;;4996351;28;20193;-70
2023/12/25 09:45:03;;;;;;;7.13;1.70;;;23.60;99.90;;;;;;4996699;28;20183;-71
2023/12/25 09:47:31;;;;;;;4.57;1.83;;;23.50;99.90;;;;;;4996132;28;20782;-70
2023/12/25 09:49:59;;;;;;;12.00;2.10;;;23.50;99.90;;;;;;4995260;28;20183;-70
2023/12/25 09:52:27;;;;;;;8.60;1.97;;;23.50;99.90;;;;;;4996351;28;20213;-70
2023/12/25 09:54:55;;;;;;;7.43;2.23;;;23.50;99.90;;;;;;4996426;28;20179;-72
2023/12/25 09:57:24;;;;;;;5.33;1.80;;;23.50;99.90;;;;;;4996016;28;20281;-70
2023/12/25 09:59:53;;;;;;;10.77;2.07;;;23.70;99.90;;;;;;4996079;28;20185;-69
2023/12/25 10:02:26;;;;;;;10.83;3.33;;;23.60;99.90;;;;;;4996047;28;20182;-69
2023/12/25 10:04:55;;;;;;;13.30;4.50;;;23.60;99.90;;;;;;4996505;28;20166;-69
2023/12/25 10:07:23;;;;;;;7.10;3.80;;;23.60;99.90;;;;;;4996376;28;20210;-69
2023/12/25 10:09:54;;;;;;;5.10;2.23;;;23.60;99.90;;;;;;4978388;28;20179;-70
2023/12/25 10:12:21;;;;;;;2.73;1.80;;;23.60;99.90;;;;;;4995844;28;20194;-70
2023/12/25 10:14:49;;;;;;;4.17;1.70;;;23.50;99.90;;;;;;4995799;28;20182;-69
2023/12/25 10:17:18;;;;;;;3.47;1.50;;;23.40;99.90;;;;;;4995853;28;20194;-69
2023/12/25 10:19:56;;;;;;;6.80;2.27;;;23.30;99.90;;;;;;4995617;28;20285;-69
2023/12/25 10:22:37;;;;;;;3.53;1.90;;;23.20;99.90;;;;;;4995667;28;20186;-69
2023/12/25 10:25:13;;;;;;;7.47;2.20;;;23.20;99.90;;;;;;4995591;28;20186;-70
2023/12/25 10:27:42;;;;;;;5.13;2.57;;;23.20;99.90;;;;;;4995640;28;20226;-69
2023/12/25 10:30:21;;;;;;;3.67;2.17;;;23.10;99.90;;;;;;4977978;28;20643;-70
2023/12/25 10:32:50;;;;;;;6.80;2.57;;;23.00;99.90;;;;;;4995975;28;20174;-70
2023/12/25 10:35:19;;;;;;;6.23;2.10;;;23.00;99.90;;;;;;4978154;28;20551;-69
2023/12/25 10:37:47;;;;;;;7.03;2.03;;;23.00;99.90;;;;;;4995525;28;20186;-70
2023/12/25 10:40:26;;;;;;;7.13;2.43;;;23.10;99.90;;;;;;4995584;28;20198;-70
2023/12/25 10:42:55;;;;;;;5.57;2.50;;;23.20;99.90;;;;;;4995468;28;20182;-70
2023/12/25 10:45:25;;;;;;;5.80;2.50;;;23.20;99.90;;;;;;4996004;28;20170;-69
2023/12/25 10:47:58;;;;;;;7.17;2.37;;;23.20;99.90;;;;;;4997316;28;20272;-69
2023/12/25 10:50:30;;;;;;;4.30;2.00;;;23.30;99.90;;;;;;4997885;28;20189;-69
2023/12/25 10:53:08;;;;;;;4.50;1.93;;;23.40;99.90;;;;;;4997154;28;20186;-70
2023/12/25 10:55:37;;;;;;;2.50;1.63;;;23.40;99.90;;;;;;4996569;28;20170;-69
2023/12/25 10:58:11;;;;;;;5.50;2.03;;;23.40;99.90;;;;;;4994836;28;20229;-69
2023/12/25 11:00:56;;;;;;;7.43;2.33;;;23.40;99.90;;;;;;4977208;28;20186;-68
2023/12/25 11:03:24;;;;;;;9.63;2.20;;;23.40;99.90;;;;;;4993933;28;20178;-69
2023/12/25 11:05:53;;;;;;;11.03;2.10;;;23.30;99.90;;;;;;4994179;28;20560;-70
2023/12/25 11:08:21;;;;;;;5.27;2.10;;;23.30;99.90;;;;;;4994096;28;20194;-69
2023/12/25 11:10:49;;;;;;;6.47;1.67;;;23.20;99.90;;;;;;4976789;28;20193;-69
2023/12/25 11:13:17;;;;;;;6.03;2.23;;;23.10;99.90;;;;;;4993833;28;20190;-69
2023/12/25 11:15:45;;;;;;;4.47;1.53;;;23.00;99.90;;;;;;4994005;28;20579;-70
2023/12/25 11:18:12;;;;;;;4.73;1.90;;;22.90;99.90;;;;;;4994010;28;20183;-70
2023/12/25 11:21:06;;;;;;;7.53;2.20;;;22.80;99.90;;;;;;4993776;28;20179;-70
2023/12/25 11:23:38;;;;;;;3.40;2.10;;;22.80;99.90;;;;;;4976859;28;20182;-69
2023/12/25 11:26:07;;;;;;;8.03;1.80;;;22.80;99.90;;;;;;4993960;28;20179;-69
2023/12/25 11:28:43;;;;;;;5.80;1.90;;;22.80;99.90;;;;;;4993881;28;20690;-69
2023/12/25 11:31:21;;;;;;;4.67;1.97;;;22.90;99.90;;;;;;4976500;28;20644;-69
2023/12/25 11:33:51;;;;;;;6.50;2.00;;;22.90;99.90;;;;;;4993974;28;20178;-68
2023/12/25 11:36:19;;;;;;;13.50;2.03;;;23.00;99.90;;;;;;4993894;28;20182;-69
2023/12/25 11:38:55;;;;;;;5.53;2.17;;;23.10;99.90;;;;;;4976209;28;20183;-69
2023/12/25 11:41:24;;;;;;;6.33;1.90;;;23.10;99.90;;;;;;4993441;28;20170;-68
2023/12/25 11:43:52;;;;;;;6.03;1.80;;;23.20;99.90;;;;;;4993653;28;20190;-68
2023/12/25 11:46:21;;;;;;;5.43;2.30;;;23.20;99.90;;;;;;4993734;28;20209;-69
2023/12/25 11:48:57;;;;;;;9.80;2.70;;;23.30;99.90;;;;;;4993554;28;20186;-69
2023/12/25 11:51:29;;;;;;;6.37;2.10;;;23.30;99.90;;;;;;4993568;28;20175;-69
2023/12/25 11:54:03;;;;;;;5.03;2.27;;;23.20;99.90;;;;;;4993574;28;20178;-69
2023/12/25 11:56:33;;;;;;;6.43;1.30;;;23.30;99.90;;;;;;4872631;28;3517605;-69
2023/12/25 11:59:02;;;;;;;4.57;1.47;;;23.00;99.90;;;;;;4994169;28;20683;-69
2023/12/25 12:01:29;;;;;;;5.80;1.30;;;22.70;99.90;;;;;;4976761;28;20232;-69
2023/12/25 12:03:57;;;;;;;2.13;1.00;;;22.40;99.90;;;;;;4993993;28;20201;-69
2023/12/25 12:06:25;;;;;;;4.23;0.80;;;22.20;99.90;;;;;;4993706;28;20213;-69
2023/12/25 12:08:52;;;;;;;2.90;1.00;;;22.10;99.90;;;;;;4994157;28;20178;-69
2023/12/25 12:11:20;;;;;;;2.20;1.10;;;22.00;99.90;;;;;;4994068;28;20260;-71
2023/12/25 12:13:48;;;;;;;2.00;1.13;;;21.80;99.90;;;;;;4993959;28;20179;-69
2023/12/25 12:16:16;;;;;;;2.37;1.07;;;21.60;99.90;;;;;;4992984;28;20541;-69
2023/12/25 12:18:44;;;;;;;3.87;1.10;;;21.50;99.90;;;;;;4994029;28;20179;-69
2023/12/25 12:21:12;;;;;;;3.40;0.70;;;21.40;99.90;;;;;;4976188;28;20219;-70
2023/12/25 12:23:39;;;;;;;4.73;1.00;;;21.30;99.90;;;;;;4993726;28;20225;-69
2023/12/25 12:26:17;;;;;;;3.33;1.07;;;21.10;99.90;;;;;;4993707;28;20186;-69
2023/12/25 12:28:45;;;;;;;1.63;0.77;;;20.90;99.90;;;;;;4993930;28;20202;-69
2023/12/25 12:31:14;;;;;;;3.43;0.80;;;20.80;99.90;;;;;;4993694;28;20656;-69
2023/12/25 12:33:45;;;;;;;5.07;1.10;;;20.80;99.90;;;;;;4993812;28;20183;-69
2023/12/25 12:36:13;;;;;;;1.57;0.70;;;20.70;99.90;;;;;;4994204;28;20183;-69
2023/12/25 12:38:45;;;;;;;1.63;0.90;;;20.70;99.90;;;;;;4993688;28;20175;-68
2023/12/25 12:41:13;;;;;;;2.57;1.00;;;20.60;99.90;;;;;;4993468;28;20702;-69
2023/12/25 12:43:41;;;;;;;2.17;0.87;;;20.50;99.90;;;;;;4992380;28;20193;-70
2023/12/25 12:46:14;;;;;;;1.27;0.70;;;20.40;99.90;;;;;;4992032;28;20280;-69
2023/12/25 12:48:43;;;;;;;2.37;0.73;;;20.40;99.90;;;;;;4992961;28;20305;-69
2023/12/25 12:51:10;;;;;;;2.40;0.80;;;20.40;99.90;;;;;;4993356;28;20650;-69
2023/12/25 12:53:38;;;;;;;1.50;0.70;;;20.40;99.90;;;;;;4993290;28;20175;-69
2023/12/25 12:56:06;;;;;;;0.80;0.80;;;20.40;99.90;;;;;;4993029;28;20183;-69
2023/12/25 12:58:37;;;;;;;1.10;0.90;;;20.40;99.90;;;;;;4992321;28;20255;-69